Time;durP1;ratioP1;P1;durP2;ratioP2;P2;SDS_P1;SDS_P2;PMS_P1;PMS_P2;Temp;Humidity;BMP_temperature;BMP_pressure;BME280_temperature;BME280_humidity;BME280_pressure;Samples;Min_cycle;Max_cycle;Signal;HPM_P1;HPM_P2
2022/06/01 07:53:59;;;;;;;5.15;3.60;;;12.40;99.90;;;;;;5090901;28;20579;-71
2022/06/01 07:56:25;;;;;;;3.45;3.15;;;12.60;99.90;;;;;;5090933;28;20175;-71
2022/06/01 07:58:51;;;;;;;3.15;2.95;;;12.70;99.90;;;;;;5090909;28;20168;-71
2022/06/01 08:01:21;;;;;;;2.97;2.72;;;12.80;99.90;;;;;;5090924;28;20179;-71
2022/06/01 08:03:47;;;;;;;2.75;2.65;;;12.90;99.90;;;;;;5090820;28;20694;-71
2022/06/01 08:06:12;;;;;;;3.65;3.22;;;13.00;99.90;;;;;;5090769;28;20620;-71
2022/06/01 08:08:38;;;;;;;3.03;2.88;;;13.00;99.90;;;;;;5090627;28;20171;-71
2022/06/01 08:11:03;;;;;;;2.90;2.70;;;13.00;99.90;;;;;;5090718;28;20649;-71
2022/06/01 08:13:29;;;;;;;3.80;2.70;;;13.00;99.90;;;;;;5090574;28;20195;-71
2022/06/01 08:15:55;;;;;;;3.20;2.90;;;13.20;99.90;;;;;;5090566;28;20170;-71
2022/06/01 08:18:23;;;;;;;2.70;2.60;;;13.30;99.90;;;;;;5090583;28;20520;-71
2022/06/01 08:20:49;;;;;;;4.13;3.10;;;13.20;99.90;;;;;;5089035;28;20202;-71
2022/06/01 08:23:14;;;;;;;5.90;2.70;;;13.20;99.90;;;;;;5090391;28;20179;-71
2022/06/01 08:25:41;;;;;;;3.72;2.65;;;13.10;99.90;;;;;;5090372;28;20693;-71
2022/06/01 08:28:08;;;;;;;2.60;2.40;;;13.10;99.90;;;;;;5090349;28;20624;-72
2022/06/01 08:30:36;;;;;;;4.57;3.03;;;13.20;99.90;;;;;;5090296;28;20176;-71
2022/06/01 08:33:02;;;;;;;6.35;3.00;;;13.30;99.90;;;;;;5090158;28;20680;-72
2022/06/01 08:35:34;;;;;;;2.95;2.75;;;13.30;99.90;;;;;;5090058;28;20172;-71
2022/06/01 08:38:01;;;;;;;2.90;2.80;;;13.40;99.90;;;;;;5090071;28;20172;-72
2022/06/01 08:40:30;;;;;;;3.60;2.67;;;13.40;99.90;;;;;;5090125;28;20179;-71
2022/06/01 08:43:03;;;;;;;3.50;2.67;;;13.50;99.90;;;;;;5090371;28;20170;-71
2022/06/01 08:45:30;;;;;;;2.60;2.50;;;13.60;99.90;;;;;;5090068;28;20212;-71
2022/06/01 08:47:56;;;;;;;2.70;2.50;;;13.60;99.90;;;;;;5089908;28;20255;-71
2022/06/01 08:50:32;;;;;;;2.20;2.10;;;13.70;99.90;;;;;;5089923;28;20582;-71
2022/06/01 08:53:01;;;;;;;2.60;2.40;;;13.70;99.90;;;;;;5089661;28;20573;-71
2022/06/01 08:55:35;;;;;;;3.75;2.30;;;13.90;99.90;;;;;;5089858;28;20172;-71
2022/06/01 08:58:13;;;;;;;2.15;1.92;;;13.90;99.90;;;;;;5088578;28;20176;-71
2022/06/01 09:00:48;;;;;;;2.42;2.17;;;13.90;99.90;;;;;;5089714;28;20180;-71
2022/06/01 09:03:22;;;;;;;4.43;2.00;;;13.90;99.90;;;;;;5088473;28;20168;-71
2022/06/01 09:05:52;;;;;;;3.83;2.10;;;13.80;99.90;;;;;;5076040;28;20566;-71
2022/06/01 09:08:30;;;;;;;2.40;2.10;;;13.90;99.90;;;;;;5076070;28;20169;-71
2022/06/01 09:11:09;;;;;;;2.20;2.10;;;13.80;99.90;;;;;;5076038;28;20186;-71
2022/06/01 09:13:49;;;;;;;5.80;1.75;;;13.80;99.90;;;;;;5075923;28;20246;-71
2022/06/01 09:16:30;;;;;;;3.25;2.55;;;13.80;99.90;;;;;;5075941;28;20173;-71
2022/06/01 09:18:57;;;;;;;3.72;2.00;;;13.70;99.90;;;;;;5075966;28;20206;-71
2022/06/01 09:24:18;;;;;;;2.17;2.08;;;13.50;99.90;;;;;;5076108;28;20186;-71
2022/06/01 09:27:03;;;;;;;2.08;1.95;;;13.70;99.90;;;;;;5075725;28;20203;-71
2022/06/01 09:29:32;;;;;;;2.63;1.92;;;13.90;99.90;;;;;;5075691;28;20218;-72
2022/06/01 09:32:12;;;;;;;2.50;2.30;;;14.10;99.90;;;;;;5076122;28;20282;-71
2022/06/01 09:34:44;;;;;;;2.20;2.00;;;14.30;99.90;;;;;;5075698;28;20229;-71
2022/06/01 09:37:18;;;;;;;2.20;2.00;;;14.30;99.90;;;;;;5075604;28;20172;-71
2022/06/01 09:39:56;;;;;;;3.13;1.80;;;14.40;99.90;;;;;;5075560;28;20175;-71
2022/06/01 09:42:26;;;;;;;3.50;2.28;;;14.30;99.90;;;;;;5075398;28;20180;-72
2022/06/01 09:44:56;;;;;;;2.30;2.05;;;14.30;99.90;;;;;;5075579;28;20168;-71
2022/06/01 09:47:43;;;;;;;2.55;2.05;;;14.30;99.90;;;;;;5075365;28;20704;-71
2022/06/01 09:50:28;;;;;;;4.82;2.05;;;14.30;99.90;;;;;;5075393;28;20199;-72
2022/06/01 09:53:20;;;;;;;2.00;1.90;;;14.40;99.90;;;;;;5075330;28;20216;-71
2022/06/01 09:55:59;;;;;;;1.92;1.83;;;14.40;99.90;;;;;;5075242;28;20168;-71
2022/06/01 10:07:06;;;;;;;2.08;1.70;;;14.60;99.90;;;;;;5074963;28;20176;-71
2022/06/01 10:09:33;;;;;;;3.55;1.85;;;14.60;99.90;;;;;;5074866;28;20169;-72
2022/06/01 10:12:18;;;;;;;3.28;1.88;;;14.60;99.90;;;;;;5074881;28;20207;-72
2022/06/01 10:14:54;;;;;;;2.90;2.20;;;14.60;99.90;;;;;;5074724;28;20229;-71
2022/06/01 10:17:40;;;;;;;2.30;2.05;;;14.70;99.90;;;;;;5074135;28;20167;-71
2022/06/01 10:20:21;;;;;;;7.18;2.10;;;14.70;99.90;;;;;;5074724;28;20176;-71
2022/06/01 10:23:09;;;;;;;2.47;1.80;;;14.80;99.90;;;;;;5073346;28;20191;-72
2022/06/01 10:25:48;;;;;;;1.80;1.80;;;14.80;99.90;;;;;;5074571;28;20203;-71
2022/06/01 10:28:22;;;;;;;2.15;2.00;;;15.20;99.90;;;;;;5074517;28;20164;-71
2022/06/01 10:31:00;;;;;;;2.08;1.98;;;15.20;99.90;;;;;;5074752;28;20267;-71
2022/06/01 10:33:35;;;;;;;6.13;2.13;;;15.20;99.90;;;;;;5074376;28;20227;-71
2022/06/01 10:36:20;;;;;;;4.53;2.20;;;15.20;99.90;;;;;;5074439;28;20255;-71
2022/06/01 10:38:50;;;;;;;4.65;1.92;;;15.20;99.90;;;;;;5074322;28;20168;-71
2022/06/01 10:41:49;;;;;;;2.47;2.00;;;15.30;99.90;;;;;;5074277;28;20233;-71
2022/06/01 10:44:24;;;;;;;1.90;1.70;;;15.50;99.90;;;;;;5074255;28;20165;-71
2022/06/01 10:46:52;;;;;;;2.72;1.77;;;15.60;99.90;;;;;;5074174;28;20164;-72
2022/06/01 10:49:49;;;;;;;3.05;1.83;;;15.70;99.90;;;;;;5072836;28;20207;-72
2022/06/01 10:52:42;;;;;;;2.42;1.98;;;16.00;99.90;;;;;;5073815;28;20293;-71
2022/06/01 10:55:09;;;;;;;1.70;1.60;;;16.20;99.90;;;;;;5074003;28;20160;-71
2022/06/01 10:57:41;;;;;;;4.47;1.92;;;16.20;99.90;;;;;;5072638;28;20168;-71
2022/06/01 11:00:16;;;;;;;2.30;2.10;;;16.10;99.90;;;;;;5073984;28;20699;-72
2022/06/01 11:02:45;;;;;;;1.77;1.67;;;16.20;99.90;;;;;;5073921;28;20683;-71
2022/06/01 11:05:25;;;;;;;2.45;2.00;;;16.30;99.90;;;;;;5073797;28;20534;-72
2022/06/01 11:08:10;;;;;;;2.55;1.63;;;16.10;99.90;;;;;;5073766;28;20199;-71
2022/06/01 11:10:53;;;;;;;2.95;1.80;;;15.90;99.90;;;;;;5073684;28;20247;-71
2022/06/01 11:13:42;;;;;;;12.00;3.45;;;15.90;99.90;;;;;;5073672;28;20656;-71
2022/06/01 11:16:29;;;;;;;3.08;2.03;;;16.00;99.90;;;;;;5073692;28;20164;-72
2022/06/01 11:19:16;;;;;;;3.67;2.22;;;16.30;99.90;;;;;;5073569;28;20229;-71
2022/06/01 11:22:01;;;;;;;1.80;1.75;;;16.30;99.90;;;;;;5073504;28;20306;-72
2022/06/01 11:24:53;;;;;;;2.95;2.00;;;16.50;99.90;;;;;;5073603;28;20496;-72
2022/06/01 11:27:39;;;;;;;2.45;1.80;;;16.60;99.90;;;;;;5073335;28;20196;-71
2022/06/01 11:30:17;;;;;;;4.55;2.00;;;16.80;99.90;;;;;;5073544;28;20192;-71
2022/06/01 11:32:47;;;;;;;2.05;1.80;;;16.90;99.90;;;;;;5073347;28;20279;-72
2022/06/01 11:35:48;;;;;;;1.73;1.63;;;16.70;99.90;;;;;;5072165;28;20195;-71
2022/06/01 11:38:34;;;;;;;4.13;1.90;;;16.70;99.90;;;;;;5073423;28;20172;-71
2022/06/01 11:41:23;;;;;;;1.50;1.40;;;16.60;99.90;;;;;;5073330;28;20256;-72
2022/06/01 11:44:02;;;;;;;3.15;1.90;;;16.50;99.90;;;;;;5073410;28;20195;-71
2022/06/01 11:46:50;;;;;;;2.80;1.52;;;16.50;99.90;;;;;;5072146;28;20176;-72
2022/06/01 11:49:32;;;;;;;5.63;2.10;;;16.70;99.90;;;;;;5073240;28;20200;-71
2022/06/01 11:52:16;;;;;;;1.58;1.48;;;16.70;99.90;;;;;;5072996;28;20251;-72
2022/06/01 11:54:42;;;;;;;3.08;1.73;;;16.50;99.90;;;;;;5073302;28;20526;-72
2022/06/01 11:57:37;;;;;;;2.85;1.38;;;16.60;99.90;;;;;;5071874;28;20172;-71
2022/06/01 12:00:15;;;;;;;3.72;1.48;;;16.70;99.90;;;;;;5073127;28;20544;-71
2022/06/01 12:02:41;;;;;;;1.40;1.40;;;16.60;99.90;;;;;;5073216;28;20242;-71
2022/06/01 12:05:09;;;;;;;1.50;1.50;;;16.50;99.90;;;;;;5072045;28;20529;-71
2022/06/01 12:07:46;;;;;;;2.45;1.65;;;16.60;99.90;;;;;;5073175;28;20168;-72
2022/06/01 12:10:23;;;;;;;2.03;1.52;;;16.60;99.90;;;;;;5073122;28;20176;-71
2022/06/01 12:12:55;;;;;;;2.17;1.60;;;16.60;99.90;;;;;;5073038;28;20199;-71
2022/06/01 12:15:38;;;;;;;1.90;1.35;;;16.50;99.90;;;;;;5073062;28;20634;-72
2022/06/01 12:18:18;;;;;;;2.80;1.50;;;16.40;99.90;;;;;;5073007;28;20176;-71
2022/06/01 12:20:53;;;;;;;1.45;1.35;;;16.30;99.90;;;;;;5072921;28;20569;-71
2022/06/01 12:28:59;;;;;;;2.25;1.40;;;16.30;99.90;;;;;;5073192;28;20222;-71
2022/06/01 12:31:29;;;;;;;1.55;1.45;;;16.40;99.90;;;;;;5072923;28;20168;-71
2022/06/01 12:34:13;;;;;;;1.73;1.63;;;16.20;99.90;;;;;;5072954;28;20193;-71
2022/06/01 12:36:58;;;;;;;1.40;1.27;;;16.20;99.90;;;;;;5072890;28;20161;-72
2022/06/01 12:39:39;;;;;;;1.50;1.40;;;16.10;99.90;;;;;;5074308;28;20175;-71
2022/06/01 12:42:05;;;;;;;7.28;1.92;;;16.20;99.90;;;;;;5076498;28;20164;-71
2022/06/01 12:44:34;;;;;;;2.15;1.52;;;16.20;99.90;;;;;;5076575;28;20168;-71
2022/06/01 12:47:00;;;;;;;6.13;2.33;;;16.10;99.90;;;;;;5076479;28;20164;-71
2022/06/01 12:49:32;;;;;;;2.08;1.70;;;16.00;99.90;;;;;;5076372;28;20177;-71
2022/06/01 12:52:03;;;;;;;1.63;1.52;;;15.90;99.90;;;;;;5075936;28;20220;-71
2022/06/01 12:54:32;;;;;;;2.53;1.85;;;15.90;99.90;;;;;;5076385;28;20251;-71
2022/06/01 12:56:58;;;;;;;1.85;1.75;;;15.90;99.90;;;;;;5076315;28;20520;-71
2022/06/01 12:59:28;;;;;;;3.22;1.65;;;16.00;99.90;;;;;;5076237;28;20173;-72
2022/06/01 13:02:04;;;;;;;3.55;1.80;;;16.20;99.90;;;;;;5076687;28;20172;-71
2022/06/01 13:04:30;;;;;;;1.70;1.60;;;16.60;99.90;;;;;;5076186;28;20184;-72
2022/06/01 13:06:56;;;;;;;1.90;1.35;;;16.90;99.90;;;;;;5076114;28;20171;-72
2022/06/01 13:09:35;;;;;;;4.55;1.60;;;17.00;99.90;;;;;;5076322;28;20558;-71
2022/06/01 13:12:13;;;;;;;5.30;2.03;;;16.80;99.90;;;;;;5075976;28;20168;-72
2022/06/01 13:14:39;;;;;;;1.80;1.70;;;16.40;99.90;;;;;;5075971;28;20156;-72
2022/06/01 13:17:18;;;;;;;4.10;1.90;;;16.10;99.90;;;;;;5075925;28;20180;-71
2022/06/01 13:19:59;;;;;;;2.42;2.22;;;15.90;99.90;;;;;;5075891;28;20199;-71
2022/06/01 13:22:34;;;;;;;4.18;1.90;;;15.70;99.90;;;;;;5075777;28;20189;-71
2022/06/01 13:25:05;;;;;;;2.83;1.90;;;15.50;99.90;;;;;;5075835;28;20271;-72
2022/06/01 13:27:34;;;;;;;1.40;1.30;;;15.30;99.90;;;;;;5075776;28;20176;-71
2022/06/01 13:30:01;;;;;;;1.55;1.45;;;15.10;99.90;;;;;;5075662;28;20171;-72
2022/06/01 13:32:47;;;;;;;1.23;1.23;;;14.90;99.90;;;;;;5075456;28;20192;-72
2022/06/01 13:35:30;;;;;;;1.92;1.38;;;14.90;99.90;;;;;;5075676;28;20175;-71
2022/06/01 13:37:57;;;;;;;3.72;1.30;;;14.90;99.90;;;;;;5075577;28;20164;-72
2022/06/01 13:40:33;;;;;;;5.28;2.00;;;15.00;99.90;;;;;;5075508;28;20160;-71
2022/06/01 13:43:05;;;;;;;1.50;1.50;;;15.30;99.90;;;;;;5075474;28;20305;-71
2022/06/01 13:45:36;;;;;;;2.28;2.08;;;15.30;99.90;;;;;;5075412;28;20172;-71
2022/06/01 13:48:06;;;;;;;2.53;2.42;;;15.10;99.90;;;;;;5075304;28;20172;-71
2022/06/01 13:50:45;;;;;;;11.35;3.15;;;14.90;99.90;;;;;;5073954;28;20176;-72
2022/06/01 13:53:13;;;;;;;3.42;3.22;;;14.80;99.90;;;;;;5075204;28;20220;-71
2022/06/01 13:56:04;;;;;;;3.75;3.17;;;14.60;99.90;;;;;;5075353;28;20167;-72
2022/06/01 13:58:35;;;;;;;3.72;3.53;;;14.60;99.90;;;;;;5075181;28;20659;-71
2022/06/01 14:01:32;;;;;;;3.55;3.30;;;15.00;99.90;;;;;;5075082;28;20243;-71
2022/06/01 14:03:59;;;;;;;3.55;3.25;;;15.50;99.90;;;;;;5074630;28;20180;-71
2022/06/01 14:06:43;;;;;;;6.88;2.88;;;15.80;99.90;;;;;;5074981;28;20168;-71
2022/06/01 14:09:12;;;;;;;2.95;2.78;;;16.10;99.90;;;;;;5074931;28;20172;-71
2022/06/01 14:11:38;;;;;;;2.70;2.50;;;16.10;99.90;;;;;;5074818;28;20172;-72
2022/06/01 14:14:15;;;;;;;3.50;3.13;;;16.20;99.90;;;;;;5074780;28;20219;-71
2022/06/01 14:16:53;;;;;;;2.88;2.78;;;16.30;99.90;;;;;;5074859;28;20268;-71
2022/06/01 14:19:19;;;;;;;3.55;3.03;;;16.50;99.90;;;;;;5073417;28;20557;-71
2022/06/01 14:21:47;;;;;;;2.78;2.67;;;16.60;99.90;;;;;;5074617;28;20191;-71
2022/06/01 14:24:13;;;;;;;2.88;2.78;;;16.90;99.90;;;;;;5074625;28;20176;-71
2022/06/01 14:29:23;;;;;;;3.13;3.03;;;16.90;99.90;;;;;;5074847;28;20689;-71
2022/06/01 14:31:49;;;;;;;3.90;3.28;;;16.50;99.90;;;;;;5074416;28;20204;-71
2022/06/01 14:34:16;;;;;;;2.88;2.75;;;16.40;99.90;;;;;;5074503;28;20200;-72
2022/06/01 14:36:42;;;;;;;4.93;3.50;;;16.50;99.90;;;;;;5073156;28;20206;-71
2022/06/01 14:39:09;;;;;;;2.95;2.80;;;16.40;99.90;;;;;;5074333;28;20196;-71
2022/06/01 14:41:41;;;;;;;3.10;2.90;;;16.40;99.90;;;;;;5074386;28;20251;-71
2022/06/01 14:44:12;;;;;;;3.00;2.80;;;16.10;99.90;;;;;;5074172;28;20706;-72
2022/06/01 14:46:37;;;;;;;2.90;2.70;;;15.70;99.90;;;;;;5072962;28;20176;-71
2022/06/01 14:49:03;;;;;;;3.25;3.05;;;15.50;99.90;;;;;;5074102;28;20692;-71
2022/06/01 14:51:35;;;;;;;3.22;2.80;;;15.20;99.90;;;;;;5074118;28;20251;-71
2022/06/01 14:54:02;;;;;;;3.63;3.42;;;14.90;99.90;;;;;;5074017;28;20538;-72
2022/06/01 14:56:28;;;;;;;3.33;3.13;;;14.70;99.90;;;;;;5073975;28;20175;-71
2022/06/01 14:58:53;;;;;;;3.30;3.10;;;14.60;99.90;;;;;;5073956;28;20164;-71
2022/06/01 15:01:39;;;;;;;4.75;4.35;;;14.50;99.90;;;;;;5072363;28;20168;-71
2022/06/01 15:04:09;;;;;;;5.30;3.30;;;14.30;99.90;;;;;;5073907;28;20251;-71
2022/06/01 15:06:35;;;;;;;6.07;3.67;;;14.10;99.90;;;;;;5072536;28;20718;-71
2022/06/01 15:09:00;;;;;;;4.07;3.70;;;14.00;99.90;;;;;;5073758;28;20172;-72
2022/06/01 15:11:26;;;;;;;3.75;3.45;;;13.80;99.90;;;;;;5073695;28;20664;-71
2022/06/01 15:13:51;;;;;;;3.65;3.28;;;13.70;99.90;;;;;;5073563;28;20200;-71
2022/06/01 15:16:18;;;;;;;3.80;3.22;;;13.60;99.90;;;;;;5073589;28;20168;-71
2022/06/01 15:18:45;;;;;;;4.15;3.75;;;13.60;99.90;;;;;;5072310;28;20171;-71
2022/06/01 15:21:13;;;;;;;5.18;3.22;;;13.60;99.90;;;;;;5073596;28;20185;-72
2022/06/01 15:23:39;;;;;;;3.15;2.95;;;13.40;99.90;;;;;;5072187;28;20540;-72
2022/06/01 15:26:05;;;;;;;5.47;3.88;;;13.50;99.90;;;;;;5072240;28;20176;-72
2022/06/01 15:28:33;;;;;;;4.88;3.10;;;13.60;99.90;;;;;;5073462;28;20176;-72
2022/06/01 15:39:31;;;;;;;6.90;3.20;;;13.60;99.90;;;;;;5073456;28;20179;-72
2022/06/01 15:42:06;;;;;;;3.83;3.53;;;13.60;99.90;;;;;;5072149;28;20641;-72
2022/06/01 15:44:33;;;;;;;2.88;2.67;;;13.50;99.90;;;;;;5073342;28;20175;-72
2022/06/01 15:46:59;;;;;;;3.83;3.50;;;13.60;99.90;;;;;;5073351;28;20171;-71
2022/06/01 15:49:31;;;;;;;3.83;2.90;;;13.60;99.90;;;;;;5073328;28;20172;-71
2022/06/01 15:52:00;;;;;;;3.97;3.78;;;13.70;99.90;;;;;;5072999;28;20216;-71
2022/06/01 15:54:25;;;;;;;3.03;2.92;;;13.70;99.90;;;;;;5073320;28;20198;-72
2022/06/01 15:56:53;;;;;;;3.42;3.13;;;13.70;99.90;;;;;;5073226;28;20169;-71
2022/06/01 15:59:19;;;;;;;3.78;2.90;;;13.70;99.90;;;;;;5073205;28;20702;-72
2022/06/01 16:01:46;;;;;;;5.43;3.25;;;13.70;99.90;;;;;;5073246;28;20160;-71
2022/06/01 16:04:12;;;;;;;3.45;3.15;;;13.60;99.90;;;;;;5073179;28;20241;-71
2022/06/01 16:06:39;;;;;;;2.97;2.78;;;13.50;99.90;;;;;;5073214;28;20565;-71
2022/06/01 16:09:05;;;;;;;3.13;3.03;;;13.50;99.90;;;;;;5073183;28;20301;-72
2022/06/01 16:11:31;;;;;;;3.83;3.53;;;13.50;99.90;;;;;;5073036;28;20673;-72
2022/06/01 16:13:57;;;;;;;2.95;2.85;;;13.40;99.90;;;;;;5073824;28;20652;-71
2022/06/01 16:16:27;;;;;;;3.15;2.95;;;13.40;99.90;;;;;;5077134;28;20164;-71
2022/06/01 16:18:53;;;;;;;3.78;3.53;;;13.30;99.90;;;;;;5076937;28;20268;-71
2022/06/01 16:21:21;;;;;;;3.25;3.05;;;13.30;99.90;;;;;;5076966;28;20661;-71
2022/06/01 16:23:48;;;;;;;3.53;3.22;;;13.30;99.90;;;;;;5075680;28;20226;-71
2022/06/01 16:26:14;;;;;;;3.17;3.08;;;13.30;99.90;;;;;;5076818;28;20199;-72
2022/06/01 16:28:39;;;;;;;5.30;3.63;;;13.40;99.90;;;;;;5076878;28;20196;-71
2022/06/01 16:31:05;;;;;;;3.30;3.10;;;13.40;99.90;;;;;;5076804;28;20190;-72
2022/06/01 16:33:33;;;;;;;5.22;3.67;;;13.50;99.90;;;;;;5076639;28;20200;-72
2022/06/01 16:36:02;;;;;;;4.70;4.18;;;13.60;99.90;;;;;;5076651;28;20165;-71
2022/06/01 16:38:30;;;;;;;4.63;3.47;;;13.70;99.90;;;;;;5076662;28;20176;-72
2022/06/01 16:40:59;;;;;;;4.30;4.00;;;13.80;99.90;;;;;;5076565;28;20524;-72
2022/06/01 16:43:25;;;;;;;3.58;3.40;;;13.80;99.90;;;;;;5076500;28;20188;-71
2022/06/01 16:45:53;;;;;;;3.85;3.55;;;13.80;99.90;;;;;;5076553;28;20164;-72
2022/06/01 16:48:19;;;;;;;3.42;3.22;;;13.90;99.90;;;;;;5075193;28;20259;-71
2022/06/01 16:50:44;;;;;;;4.03;3.65;;;13.80;99.90;;;;;;5076459;28;20290;-71
2022/06/01 16:53:10;;;;;;;3.70;3.53;;;13.80;99.90;;;;;;5075991;28;20632;-72
2022/06/01 16:55:37;;;;;;;3.67;3.38;;;13.80;99.90;;;;;;5076625;28;20172;-72
2022/06/01 16:58:03;;;;;;;3.75;3.55;;;13.80;99.90;;;;;;5076488;28;20191;-72
2022/06/01 17:00:30;;;;;;;4.07;3.75;;;13.80;99.90;;;;;;5076300;28;20168;-71
2022/06/01 17:02:56;;;;;;;3.28;3.10;;;13.70;99.90;;;;;;5074938;28;20259;-72
2022/06/01 17:05:22;;;;;;;3.42;3.22;;;13.70;99.90;;;;;;5076131;28;20260;-72
2022/06/01 17:07:49;;;;;;;3.40;3.20;;;13.80;99.90;;;;;;5076094;28;20171;-71
2022/06/01 17:10:16;;;;;;;3.65;3.40;;;13.80;99.90;;;;;;5076069;28;20191;-71
2022/06/01 17:12:43;;;;;;;5.30;4.00;;;14.00;99.90;;;;;;5076010;28;20202;-71
2022/06/01 17:15:10;;;;;;;7.10;3.72;;;14.10;99.90;;;;;;5075970;28;20535;-71
2022/06/01 17:17:40;;;;;;;4.13;3.83;;;14.30;99.90;;;;;;5075919;28;20243;-71
2022/06/01 17:20:11;;;;;;;4.22;3.92;;;14.50;99.90;;;;;;5075885;28;20744;-71
2022/06/01 17:22:36;;;;;;;4.10;3.90;;;14.60;99.90;;;;;;5074372;28;20208;-72
2022/06/01 17:25:02;;;;;;;7.38;4.30;;;14.60;99.90;;;;;;5073978;28;20184;-72
2022/06/01 17:27:28;;;;;;;4.25;4.05;;;14.60;99.90;;;;;;5074448;28;20179;-72
2022/06/01 17:29:54;;;;;;;4.28;4.07;;;14.60;99.90;;;;;;5075718;28;20247;-72
2022/06/01 17:32:20;;;;;;;4.03;3.70;;;14.50;99.90;;;;;;5074361;28;20266;-72
2022/06/01 17:34:46;;;;;;;5.03;4.05;;;14.40;99.90;;;;;;5075573;28;20191;-72
2022/06/01 17:37:12;;;;;;;4.40;4.10;;;14.30;99.90;;;;;;5075467;28;20176;-72
2022/06/01 17:39:39;;;;;;;4.35;4.05;;;14.30;99.90;;;;;;5075621;28;20167;-72
2022/06/01 17:42:04;;;;;;;4.75;4.25;;;14.20;99.90;;;;;;5075544;28;20164;-72
2022/06/01 17:44:30;;;;;;;4.18;3.88;;;14.20;99.90;;;;;;5075469;28;20179;-71
2022/06/01 17:46:57;;;;;;;4.18;3.88;;;14.30;99.90;;;;;;5074169;28;20165;-72
2022/06/01 17:49:24;;;;;;;5.20;3.65;;;14.80;99.90;;;;;;5075344;28;20172;-72
2022/06/01 17:51:49;;;;;;;3.50;3.05;;;15.40;99.90;;;;;;5075195;28;20228;-72
2022/06/01 17:54:15;;;;;;;3.58;3.38;;;15.90;99.90;;;;;;5075204;28;20246;-72
2022/06/01 17:56:44;;;;;;;4.10;3.80;;;16.00;99.90;;;;;;5073928;28;20176;-72
2022/06/01 17:59:12;;;;;;;4.72;4.35;;;15.90;99.90;;;;;;5075192;28;20529;-72
2022/06/01 18:01:38;;;;;;;4.13;3.88;;;15.70;99.90;;;;;;5075132;28;20230;-72
2022/06/01 18:04:04;;;;;;;3.60;3.50;;;15.50;99.90;;;;;;5075049;28;20176;-72
2022/06/01 18:06:32;;;;;;;4.00;3.80;;;15.30;99.90;;;;;;5075056;28;20669;-72
2022/06/01 18:08:58;;;;;;;4.20;3.50;;;15.60;99.90;;;;;;5074998;28;20168;-72
2022/06/01 18:11:23;;;;;;;4.35;3.97;;;16.10;99.90;;;;;;5074927;28;20172;-72
2022/06/01 18:13:50;;;;;;;4.43;4.00;;;16.50;99.90;;;;;;5073443;28;20208;-72
2022/06/01 18:16:28;;;;;;;3.53;3.42;;;16.80;99.90;;;;;;5074782;28;20164;-72
2022/06/01 18:18:54;;;;;;;4.60;4.30;;;16.90;99.90;;;;;;5074689;28;20176;-72
2022/06/01 18:21:20;;;;;;;4.72;3.92;;;16.70;99.90;;;;;;5074742;28;20188;-72
2022/06/01 18:23:46;;;;;;;4.38;4.07;;;16.60;99.90;;;;;;5074687;28;20530;-72
2022/06/01 18:26:15;;;;;;;3.85;3.65;;;16.30;99.90;;;;;;5074540;28;20164;-72
2022/06/01 18:28:42;;;;;;;4.25;3.85;;;15.80;99.90;;;;;;5074661;28;20168;-72
2022/06/01 18:31:21;;;;;;;4.40;3.95;;;15.40;99.90;;;;;;5075014;28;20164;-72
2022/06/01 18:33:48;;;;;;;4.20;3.85;;;15.10;99.90;;;;;;5074591;28;20338;-71
2022/06/01 18:36:14;;;;;;;4.18;3.88;;;14.80;99.90;;;;;;5073860;28;20160;-72
2022/06/01 18:38:41;;;;;;;4.90;3.75;;;14.60;99.90;;;;;;5074147;28;20156;-72
2022/06/01 18:41:08;;;;;;;4.78;3.88;;;14.40;99.90;;;;;;5073048;28;20168;-72
2022/06/01 18:43:35;;;;;;;5.88;4.55;;;14.30;99.90;;;;;;5074326;28;20535;-72
2022/06/01 18:46:02;;;;;;;4.00;3.72;;;14.30;99.90;;;;;;5074737;28;20176;-71
2022/06/01 18:48:27;;;;;;;4.05;3.78;;;14.20;99.90;;;;;;5074212;28;20199;-71
2022/06/01 18:50:53;;;;;;;4.55;4.25;;;14.10;99.90;;;;;;5074084;28;20283;-71
2022/06/01 18:53:20;;;;;;;5.00;4.55;;;14.10;99.90;;;;;;5073893;28;20274;-71
2022/06/01 18:55:49;;;;;;;5.20;4.90;;;13.90;99.90;;;;;;5074069;28;20176;-72
2022/06/01 18:58:17;;;;;;;4.70;4.40;;;13.90;99.90;;;;;;5073891;28;20230;-72
